createdAt,value
2023-04-30T12:07:16.640Z,1.67
2023-04-30T12:09:57.729Z,1.75
2023-04-30T12:12:30.718Z,2.90
2023-04-30T12:14:59.489Z,1.88
2023-04-30T12:17:35.790Z,2.00
2023-04-30T12:20:05.280Z,1.90
2023-04-30T12:22:35.640Z,2.20
2023-04-30T12:25:10.014Z,2.10
2023-04-30T12:27:38.687Z,1.83
2023-04-30T12:30:11.501Z,2.17
2023-04-30T12:32:44.317Z,2.40
2023-04-30T12:35:16.749Z,1.90
2023-04-30T12:37:53.415Z,2.35
2023-04-30T12:40:23.239Z,2.15
2023-04-30T12:42:51.753Z,2.67
2023-04-30T12:46:01.470Z,2.33
2023-04-30T12:48:45.899Z,2.40
2023-04-30T12:51:22.918Z,2.50
2023-04-30T12:53:53.046Z,2.55
2023-04-30T12:56:22.520Z,2.55
2023-04-30T12:58:53.581Z,3.13
2023-04-30T13:01:32.185Z,2.85
2023-04-30T13:04:04.696Z,2.40
2023-04-30T13:06:36.188Z,2.58
2023-04-30T13:09:07.447Z,2.67
2023-04-30T13:11:42.019Z,2.00
2023-04-30T13:14:13.323Z,2.20
2023-04-30T13:16:48.710Z,2.60
2023-04-30T13:19:17.879Z,2.30
2023-04-30T13:21:46.318Z,2.38
2023-04-30T13:24:16.260Z,2.58
2023-04-30T13:26:45.563Z,2.40
2023-04-30T13:29:16.684Z,2.40
2023-04-30T13:31:45.745Z,2.33
2023-04-30T13:34:14.585Z,1.90
2023-04-30T13:39:19.584Z,2.50
2023-04-30T13:41:51.822Z,2.75
2023-04-30T13:44:24.145Z,2.00
2023-04-30T13:46:52.745Z,2.67
2023-04-30T13:49:21.254Z,1.88
2023-04-30T13:51:49.989Z,2.10
2023-04-30T13:54:19.865Z,2.10
2023-04-30T13:56:48.891Z,2.13
2023-04-30T13:59:21.730Z,2.20
2023-04-30T14:01:52.013Z,2.28
2023-04-30T14:04:23.635Z,3.10
2023-04-30T14:06:56.525Z,2.92
2023-04-30T14:09:27.436Z,2.45
2023-04-30T14:12:02.984Z,2.70
2023-04-30T14:14:39.273Z,2.60
2023-04-30T14:17:11.093Z,2.60
2023-04-30T14:19:39.665Z,2.42
2023-04-30T14:22:08.330Z,2.58
2023-04-30T14:27:29.497Z,2.35
2023-04-30T14:29:58.839Z,2.55
2023-04-30T14:32:28.176Z,2.20
2023-04-30T14:34:59.480Z,3.50
2023-04-30T14:37:30.732Z,2.67
2023-04-30T14:40:06.131Z,2.50
2023-04-30T14:42:34.781Z,2.78
2023-04-30T14:45:03.214Z,3.50
2023-04-30T14:47:42.086Z,2.70
2023-04-30T14:50:11.516Z,2.45
2023-04-30T14:52:43.393Z,2.80
2023-04-30T14:55:17.036Z,2.33
2023-04-30T14:57:51.162Z,2.63
2023-04-30T15:00:22.530Z,2.42
2023-04-30T15:02:53.466Z,2.80
2023-04-30T15:05:24.789Z,2.65
2023-04-30T15:07:53.821Z,2.83
2023-04-30T15:10:33.627Z,2.83
2023-04-30T15:13:02.109Z,2.15
2023-04-30T15:15:31.035Z,1.90
2023-04-30T15:18:05.813Z,2.33
2023-04-30T15:20:34.985Z,2.78
2023-04-30T15:23:04.055Z,2.85
2023-04-30T15:25:34.764Z,2.65
2023-04-30T15:28:09.758Z,2.67
2023-04-30T15:30:38.580Z,2.60
2023-04-30T15:33:07.298Z,2.75
2023-04-30T15:35:36.103Z,3.33
2023-04-30T15:40:50.244Z,2.97
2023-04-30T15:43:18.677Z,3.22
2023-04-30T15:45:48.496Z,2.60
2023-04-30T15:48:17.014Z,2.95
2023-04-30T15:50:45.525Z,2.85
2023-04-30T15:53:14.250Z,2.95
2023-04-30T15:55:47.952Z,2.90
2023-04-30T15:58:16.508Z,2.85
2023-04-30T16:00:46.698Z,2.60
2023-04-30T16:03:15.768Z,3.20
2023-04-30T16:05:47.222Z,3.10
2023-04-30T16:08:16.987Z,2.95
2023-04-30T16:10:47.111Z,3.17
2023-04-30T16:13:15.879Z,3.15
2023-04-30T16:15:47.809Z,3.03
2023-04-30T16:18:16.987Z,3.60
2023-04-30T16:20:47.334Z,3.47
2023-04-30T16:23:16.261Z,3.78
2023-04-30T16:28:17.176Z,4.13
2023-04-30T16:30:45.723Z,3.95
2023-04-30T16:33:16.705Z,4.13
2023-04-30T16:35:45.594Z,3.92
2023-04-30T16:38:14.383Z,3.97
2023-04-30T16:40:42.843Z,2.22
2023-04-30T16:43:13.655Z,2.80
2023-04-30T16:45:43.840Z,2.95
2023-04-30T16:48:14.690Z,3.30
2023-04-30T16:50:44.365Z,3.00
2023-04-30T16:53:12.892Z,3.65
2023-04-30T16:55:42.731Z,3.15
2023-04-30T16:58:11.414Z,2.75
2023-04-30T17:00:39.919Z,2.85
2023-04-30T17:03:10.548Z,3.13
2023-04-30T17:05:39.880Z,2.63
2023-04-30T17:08:08.725Z,2.63
2023-04-30T17:13:08.711Z,1.40
2023-04-30T17:15:43.439Z,2.92
2023-04-30T17:18:15.335Z,2.78
2023-04-30T17:20:57.788Z,2.60
2023-04-30T17:23:26.262Z,3.20
2023-04-30T17:26:00.012Z,2.13
2023-04-30T17:28:30.430Z,2.75
2023-04-30T17:31:03.453Z,2.58
2023-04-30T17:33:33.586Z,2.13
2023-04-30T17:36:04.998Z,2.42
2023-04-30T17:38:33.597Z,3.28
2023-04-30T17:41:04.297Z,2.88
2023-04-30T17:43:32.789Z,2.78
2023-04-30T17:46:01.534Z,2.85
2023-04-30T17:51:04.825Z,2.40
2023-04-30T17:53:44.301Z,2.72
2023-04-30T17:56:14.184Z,2.20
2023-04-30T17:58:42.777Z,3.20
2023-04-30T18:01:11.976Z,2.25
2023-04-30T18:03:42.856Z,3.30
2023-04-30T18:06:15.442Z,2.65
2023-04-30T18:08:44.605Z,3.58
2023-04-30T18:11:15.894Z,3.55
2023-04-30T18:13:45.082Z,2.25
2023-04-30T18:16:17.476Z,3.08
2023-04-30T18:18:48.070Z,2.50
2023-04-30T18:21:18.092Z,2.90
2023-04-30T18:23:48.298Z,2.95
2023-04-30T18:26:19.667Z,2.80
2023-04-30T18:28:50.967Z,2.40
2023-04-30T18:31:20.246Z,3.03
2023-04-30T18:33:49.274Z,2.85
2023-04-30T18:36:21.883Z,3.13
2023-04-30T18:38:57.563Z,2.35
2023-04-30T18:41:31.007Z,3.25
2023-04-30T18:44:02.130Z,2.88
2023-04-30T18:46:31.214Z,2.30
2023-04-30T18:48:59.755Z,3.42
2023-04-30T18:51:30.031Z,3.30
2023-04-30T18:54:03.199Z,3.05
2023-04-30T18:56:35.782Z,3.22
2023-04-30T18:59:04.486Z,3.47
2023-04-30T19:01:36.042Z,2.47
2023-04-30T19:04:16.542Z,3.55
2023-04-30T19:06:50.071Z,2.10
2023-04-30T19:09:18.687Z,3.10
2023-04-30T19:11:49.864Z,3.13
2023-04-30T19:14:18.615Z,3.00
2023-04-30T19:16:49.232Z,2.30
2023-04-30T19:19:17.745Z,2.60
2023-04-30T19:21:47.576Z,3.33
2023-04-30T19:24:16.473Z,3.53
2023-04-30T19:26:47.422Z,3.08
2023-04-30T19:29:15.895Z,3.70
2023-04-30T19:31:46.812Z,3.50
2023-04-30T19:34:18.157Z,3.50
2023-04-30T19:36:49.986Z,2.92
2023-04-30T19:39:21.347Z,2.90
2023-04-30T19:41:54.886Z,3.47
2023-04-30T19:44:30.138Z,3.17
2023-04-30T19:46:58.732Z,3.15
2023-04-30T19:49:27.573Z,3.17
2023-04-30T19:52:03.570Z,2.97
2023-04-30T19:54:34.954Z,3.13
2023-04-30T19:57:05.149Z,3.63
2023-04-30T19:59:36.930Z,2.83
2023-04-30T20:02:08.445Z,2.78
2023-04-30T20:04:38.330Z,2.85
2023-04-30T20:09:53.696Z,2.47
2023-04-30T20:12:25.218Z,3.03
2023-04-30T20:14:53.701Z,3.05
2023-04-30T20:17:22.899Z,2.88
2023-04-30T20:19:51.621Z,2.85
2023-04-30T20:22:21.957Z,2.75
2023-04-30T20:24:50.854Z,3.40
2023-04-30T20:27:19.582Z,3.28
2023-04-30T20:32:20.137Z,3.30
2023-04-30T20:34:48.822Z,3.22
2023-04-30T20:37:36.851Z,2.38
2023-04-30T20:40:09.611Z,2.97
2023-04-30T20:42:44.902Z,3.00
2023-04-30T20:45:13.489Z,2.42
2023-04-30T20:47:44.546Z,2.47
2023-04-30T20:50:15.566Z,2.13
2023-04-30T20:52:47.947Z,2.53
2023-04-30T20:55:22.314Z,2.83
2023-04-30T20:57:56.774Z,2.85
2023-04-30T21:00:37.333Z,2.63
2023-04-30T21:03:09.035Z,2.25
2023-04-30T21:05:39.008Z,2.92
2023-04-30T21:08:14.571Z,2.10
2023-04-30T21:10:48.546Z,2.28
2023-04-30T21:13:20.947Z,2.70
2023-04-30T21:15:55.184Z,2.50
2023-04-30T21:18:30.949Z,2.55
2023-04-30T21:21:05.466Z,2.33
2023-04-30T21:23:38.816Z,2.72
2023-04-30T21:26:08.581Z,2.88
2023-04-30T21:28:37.268Z,2.55
2023-04-30T21:31:06.679Z,2.92
2023-04-30T21:33:39.080Z,2.30
2023-04-30T21:36:11.272Z,2.80
2023-04-30T21:38:41.196Z,2.70
2023-04-30T21:41:18.060Z,3.13
2023-04-30T21:43:47.602Z,2.80
2023-04-30T21:46:16.165Z,3.10
2023-04-30T21:48:45.005Z,4.00
2023-04-30T21:51:17.429Z,4.72
2023-04-30T21:53:53.724Z,4.10
2023-04-30T21:56:27.273Z,4.32
2023-04-30T21:58:59.513Z,3.08
2023-04-30T22:01:55.835Z,3.10
2023-04-30T22:04:26.784Z,3.75
2023-04-30T22:06:58.176Z,4.47
2023-04-30T22:09:30.085Z,4.28
2023-04-30T22:11:59.308Z,4.35
2023-04-30T22:14:27.654Z,4.88
2023-04-30T22:16:56.192Z,5.22
2023-04-30T22:19:29.212Z,4.53
2023-04-30T22:21:58.013Z,4.15
2023-04-30T22:24:30.657Z,3.50
2023-04-30T22:26:59.335Z,3.38
2023-04-30T22:29:28.223Z,3.80
2023-04-30T22:31:56.730Z,3.22
2023-04-30T22:34:25.655Z,3.25
2023-04-30T22:36:54.133Z,3.53
2023-04-30T22:39:23.593Z,3.30
2023-04-30T22:41:55.762Z,3.60
2023-04-30T22:44:27.728Z,3.15
2023-04-30T22:46:58.211Z,2.25
2023-04-30T22:49:31.720Z,2.92
2023-04-30T22:52:01.395Z,3.28
2023-04-30T22:54:30.194Z,3.38
2023-04-30T22:57:03.147Z,3.60
2023-04-30T22:59:42.651Z,2.75
2023-04-30T23:02:11.157Z,3.17
2023-04-30T23:04:42.226Z,3.40
2023-04-30T23:07:11.712Z,3.85
2023-04-30T23:09:40.113Z,3.35
2023-04-30T23:12:10.270Z,3.60
2023-04-30T23:14:38.775Z,4.18
2023-04-30T23:17:07.309Z,5.10
2023-04-30T23:19:35.851Z,3.83
2023-04-30T23:22:04.529Z,4.85
2023-04-30T23:27:04.868Z,3.20
2023-04-30T23:29:36.301Z,3.45
2023-04-30T23:32:05.970Z,5.15
2023-04-30T23:34:34.608Z,3.60
2023-04-30T23:37:03.305Z,5.78
2023-04-30T23:42:03.134Z,4.10
2023-04-30T23:44:32.668Z,4.75
2023-04-30T23:47:02.823Z,5.00
2023-04-30T23:49:31.282Z,5.90
2023-04-30T23:51:59.598Z,4.93
2023-04-30T23:54:28.814Z,3.95
2023-04-30T23:56:57.220Z,4.05
2023-04-30T23:59:25.997Z,3.80
